createdAt,value
2017-11-23T00:02:06.834Z,39.97
2017-11-23T00:04:34.573Z,40.60
2017-11-23T00:07:02.324Z,34.47
2017-11-23T00:09:30.134Z,37.83
2017-11-23T00:11:58.648Z,37.80
2017-11-23T00:14:26.411Z,34.25
2017-11-23T00:16:54.219Z,36.53
2017-11-23T00:19:21.972Z,36.00
2017-11-23T00:21:49.728Z,34.20
2017-11-23T00:24:17.527Z,35.20
2017-11-23T00:26:46.047Z,36.38
2017-11-23T00:29:13.800Z,40.95
2017-11-23T00:31:41.616Z,42.50
2017-11-23T00:34:10.136Z,39.97
2017-11-23T00:36:37.890Z,40.53
2017-11-23T00:39:05.696Z,43.95
2017-11-23T00:41:33.483Z,40.58
2017-11-23T00:44:01.995Z,43.78
2017-11-23T00:46:29.807Z,41.83
2017-11-23T00:48:57.573Z,45.08
2017-11-23T00:51:26.107Z,45.22
2017-11-23T00:53:53.909Z,44.17
2017-11-23T00:56:21.664Z,48.92
2017-11-23T00:58:49.407Z,45.80
2017-11-23T01:01:17.213Z,49.65
2017-11-23T01:03:44.962Z,49.45
2017-11-23T01:06:12.715Z,53.67
2017-11-23T01:08:40.520Z,54.42
2017-11-23T01:11:08.267Z,54.75
2017-11-23T01:13:36.781Z,60.63
2017-11-23T01:16:04.587Z,60.75
2017-11-23T01:18:32.332Z,61.92
2017-11-23T01:21:00.099Z,64.32
2017-11-23T01:23:27.903Z,62.15
2017-11-23T01:25:55.651Z,63.83
2017-11-23T01:28:24.205Z,63.20
2017-11-23T01:30:52.019Z,65.00
2017-11-23T01:33:19.772Z,68.68
2017-11-23T01:35:47.522Z,63.67
2017-11-23T01:38:16.091Z,63.53
2017-11-23T01:40:44.604Z,65.47
2017-11-23T01:43:12.350Z,74.07
2017-11-23T01:45:40.576Z,69.10
2017-11-23T01:48:08.323Z,66.53
2017-11-23T01:50:36.084Z,65.60
2017-11-23T01:53:03.892Z,70.35
2017-11-23T01:55:32.427Z,70.72
2017-11-23T01:58:00.196Z,70.50
2017-11-23T02:00:28.015Z,67.43
2017-11-23T02:02:55.768Z,72.12
2017-11-23T02:05:24.294Z,73.10
2017-11-23T02:07:52.099Z,67.70
2017-11-23T02:10:20.623Z,67.32
2017-11-23T02:12:48.392Z,69.97
2017-11-23T02:15:16.306Z,67.70
2017-11-23T02:17:44.854Z,67.75
2017-11-23T02:20:12.631Z,73.07
2017-11-23T02:22:40.467Z,70.57
2017-11-23T02:25:08.263Z,71.37
2017-11-23T02:27:36.042Z,70.53
2017-11-23T02:30:04.660Z,75.80
2017-11-23T02:32:32.452Z,66.12
2017-11-23T02:35:00.232Z,68.80
2017-11-23T02:37:28.832Z,70.30
2017-11-23T02:39:57.364Z,70.45
2017-11-23T02:42:25.120Z,64.12
2017-11-23T02:44:52.953Z,69.35
2017-11-23T02:47:20.726Z,69.68
2017-11-23T02:49:48.485Z,68.43
2017-11-23T02:52:16.323Z,69.72
2017-11-23T02:54:44.856Z,66.87
2017-11-23T02:57:12.618Z,68.15
2017-11-23T02:59:40.459Z,62.20
2017-11-23T03:02:08.288Z,66.10
2017-11-23T03:04:36.813Z,66.80
2017-11-23T03:07:04.620Z,65.32
2017-11-23T03:09:33.172Z,60.38
2017-11-23T03:12:00.927Z,60.70
2017-11-23T03:14:28.732Z,57.92
2017-11-23T03:16:57.251Z,61.37
2017-11-23T03:19:25.023Z,58.45
2017-11-23T03:21:52.831Z,60.15
2017-11-23T03:24:21.359Z,58.85
2017-11-23T03:26:49.121Z,61.58
2017-11-23T03:29:16.927Z,54.05
2017-11-23T03:31:44.697Z,55.30
2017-11-23T03:34:13.235Z,56.45
2017-11-23T03:36:41.047Z,57.00
2017-11-23T03:39:09.583Z,56.88
2017-11-23T03:41:37.340Z,52.25
2017-11-23T03:44:05.152Z,53.65
2017-11-23T03:46:33.675Z,57.03
2017-11-23T03:49:01.427Z,55.58
2017-11-23T03:51:29.424Z,53.83
2017-11-23T03:53:57.176Z,57.03
2017-11-23T03:56:24.946Z,58.53
2017-11-23T03:58:52.763Z,56.60
2017-11-23T04:01:20.507Z,54.35
2017-11-23T04:03:49.027Z,56.37
2017-11-23T04:06:16.826Z,54.28
2017-11-23T04:08:44.584Z,51.83
2017-11-23T04:11:12.339Z,50.35
2017-11-23T04:13:40.149Z,50.03
2017-11-23T04:16:07.911Z,47.47
2017-11-23T04:18:35.672Z,47.22
2017-11-23T04:21:03.510Z,54.15
2017-11-23T04:23:32.033Z,51.83
2017-11-23T04:25:59.812Z,57.30
2017-11-23T04:28:27.644Z,53.58
2017-11-23T04:30:55.403Z,55.50
2017-11-23T04:33:23.176Z,57.28
2017-11-23T04:35:51.018Z,54.05
2017-11-23T04:38:19.530Z,56.37
2017-11-23T04:40:47.292Z,56.55
2017-11-23T04:43:15.104Z,53.92
2017-11-23T04:45:43.623Z,52.50
2017-11-23T04:48:11.371Z,54.42
2017-11-23T04:50:39.167Z,52.03
2017-11-23T04:53:07.682Z,51.20
2017-11-23T04:55:35.427Z,51.55
2017-11-23T04:58:03.239Z,46.05
2017-11-23T05:00:30.983Z,54.00
2017-11-23T05:02:59.513Z,48.83
2017-11-23T05:05:27.314Z,53.95
2017-11-23T05:07:55.878Z,50.42
2017-11-23T05:10:23.646Z,46.85
2017-11-23T05:12:51.467Z,48.58
2017-11-23T05:15:19.232Z,51.95
2017-11-23T05:17:47.000Z,47.45
2017-11-23T05:20:14.814Z,48.15
2017-11-23T05:22:43.328Z,47.35
2017-11-23T05:25:11.093Z,48.58
2017-11-23T05:27:38.895Z,53.13
2017-11-23T05:30:06.640Z,49.45
2017-11-23T05:32:34.389Z,51.17
2017-11-23T05:35:02.215Z,50.75
2017-11-23T05:37:29.963Z,49.78
2017-11-23T05:39:58.471Z,52.92
2017-11-23T05:42:26.277Z,52.58
2017-11-23T05:44:54.019Z,48.30
2017-11-23T05:47:21.772Z,44.35
2017-11-23T05:49:49.579Z,54.47
2017-11-23T05:52:17.324Z,42.95
2017-11-23T05:54:45.079Z,42.05
2017-11-23T05:57:12.962Z,48.67
2017-11-23T05:59:40.707Z,49.65
2017-11-23T06:02:08.453Z,45.72
2017-11-23T06:04:36.306Z,46.53
2017-11-23T06:07:04.056Z,45.17
2017-11-23T06:09:31.811Z,43.25
2017-11-23T06:11:59.644Z,47.20
2017-11-23T06:14:28.215Z,45.30
2017-11-23T06:16:55.964Z,43.05
2017-11-23T06:19:23.768Z,42.00
2017-11-23T06:21:51.519Z,37.80
2017-11-23T06:24:20.035Z,40.72
2017-11-23T06:26:47.840Z,41.35
2017-11-23T06:29:15.588Z,40.20
2017-11-23T06:31:43.354Z,39.33
2017-11-23T06:34:11.158Z,49.17
2017-11-23T06:36:38.911Z,44.50
2017-11-23T06:39:07.419Z,44.55
2017-11-23T06:41:35.221Z,38.55
2017-11-23T06:44:02.972Z,38.58
2017-11-23T06:46:30.722Z,35.15
2017-11-23T06:48:58.549Z,42.20
2017-11-23T06:51:26.343Z,40.28
2017-11-23T06:53:54.091Z,52.83
2017-11-23T06:56:21.904Z,38.70
2017-11-23T06:58:49.651Z,34.92
2017-11-23T07:01:17.395Z,33.05
2017-11-23T07:03:45.191Z,32.10
2017-11-23T07:06:12.956Z,32.85
2017-11-23T07:08:40.704Z,33.78
2017-11-23T07:11:08.507Z,34.63
2017-11-23T07:13:36.268Z,34.65
2017-11-23T07:16:04.030Z,36.15
2017-11-23T07:18:31.841Z,34.80
2017-11-23T07:20:59.595Z,35.47
2017-11-23T07:23:27.344Z,35.60
2017-11-23T07:25:55.147Z,32.03
2017-11-23T07:28:22.908Z,33.88
2017-11-23T07:30:50.658Z,35.95
2017-11-23T07:33:18.476Z,31.92
2017-11-23T07:35:46.220Z,30.00
2017-11-23T07:38:14.728Z,33.72
2017-11-23T07:40:42.546Z,31.92
2017-11-23T07:43:11.054Z,29.58
2017-11-23T07:45:38.803Z,28.90
2017-11-23T07:48:06.612Z,28.30
2017-11-23T07:50:34.365Z,31.55
2017-11-23T07:53:02.112Z,30.15
2017-11-23T07:55:30.109Z,26.90
2017-11-23T07:57:57.861Z,29.77
2017-11-23T08:00:25.619Z,31.55
2017-11-23T08:02:53.427Z,27.70
2017-11-23T08:05:21.944Z,30.73
2017-11-23T08:07:49.717Z,28.55
2017-11-23T08:10:17.518Z,26.77
2017-11-23T08:12:45.286Z,29.20
2017-11-23T08:15:13.817Z,27.00
2017-11-23T08:17:41.655Z,25.92
2017-11-23T08:20:09.411Z,26.92
2017-11-23T08:22:37.187Z,22.67
2017-11-23T08:25:05.040Z,19.92
2017-11-23T08:27:32.796Z,20.50
2017-11-23T08:30:00.563Z,23.00
2017-11-23T08:32:28.370Z,21.58
2017-11-23T08:34:56.134Z,23.10
2017-11-23T08:37:23.903Z,20.62
2017-11-23T08:39:51.706Z,22.75
2017-11-23T08:42:20.223Z,24.95
2017-11-23T08:44:47.977Z,24.10
2017-11-23T08:47:15.783Z,25.08
2017-11-23T08:49:43.540Z,22.52
2017-11-23T08:52:11.307Z,24.27
2017-11-23T08:54:44.659Z,22.13
2017-11-23T08:57:12.405Z,20.55
2017-11-23T08:59:40.175Z,20.40
2017-11-23T09:02:07.992Z,18.35
2017-11-23T09:04:36.506Z,18.48
2017-11-23T09:07:04.254Z,17.12
2017-11-23T09:09:32.823Z,16.85
2017-11-23T09:12:03.095Z,16.08
2017-11-23T09:14:31.627Z,15.02
2017-11-23T09:17:00.193Z,13.07
2017-11-23T09:19:28.716Z,14.23
2017-11-23T09:21:56.472Z,13.65
2017-11-23T09:24:24.298Z,12.07
2017-11-23T09:26:52.821Z,12.48
2017-11-23T09:29:20.573Z,11.40
2017-11-23T09:31:48.372Z,9.38
2017-11-23T09:34:16.131Z,10.77
2017-11-23T09:36:43.910Z,10.20
2017-11-23T09:39:11.719Z,10.50
2017-11-23T09:41:39.472Z,10.43
2017-11-23T09:44:07.221Z,9.35
2017-11-23T09:46:35.788Z,9.85
2017-11-23T09:49:03.535Z,10.70
2017-11-23T09:51:31.314Z,11.02
2017-11-23T09:53:59.888Z,10.45
2017-11-23T09:56:27.951Z,9.18
2017-11-23T09:58:55.708Z,7.50
2017-11-23T10:01:23.520Z,6.87
2017-11-23T10:03:51.276Z,6.85
2017-11-23T10:06:19.036Z,7.95
2017-11-23T10:08:46.843Z,7.22
2017-11-23T10:11:14.940Z,7.55
2017-11-23T10:13:43.463Z,7.28
2017-11-23T10:16:11.266Z,7.57
2017-11-23T10:18:39.008Z,6.55
2017-11-23T10:21:07.515Z,6.90
2017-11-23T10:23:35.327Z,5.12
2017-11-23T10:26:03.083Z,5.80
2017-11-23T10:28:30.827Z,5.93
2017-11-23T10:30:59.417Z,4.53
2017-11-23T10:33:27.163Z,4.32
2017-11-23T10:35:58.427Z,5.15
2017-11-23T10:38:26.234Z,4.97
2017-11-23T10:40:53.984Z,7.07
2017-11-23T10:43:21.726Z,4.60
2017-11-23T10:45:49.536Z,4.50
2017-11-23T10:48:29.091Z,5.50
2017-11-23T10:50:57.664Z,7.05
2017-11-23T10:53:26.184Z,6.55
2017-11-23T10:55:54.699Z,7.10
2017-11-23T10:58:22.503Z,4.35
2017-11-23T11:00:50.254Z,5.97
2017-11-23T11:03:18.771Z,4.05
2017-11-23T11:05:46.581Z,4.82
2017-11-23T11:08:14.337Z,5.35
2017-11-23T11:10:42.083Z,5.20
2017-11-23T11:13:09.892Z,4.30
2017-11-23T11:15:37.640Z,4.55
2017-11-23T11:18:06.149Z,4.87
2017-11-23T11:20:33.968Z,5.20
2017-11-23T11:23:01.710Z,5.00
2017-11-23T11:25:29.461Z,4.75
2017-11-23T11:27:57.260Z,4.05
2017-11-23T11:30:25.771Z,4.97
2017-11-23T11:32:53.512Z,5.62
2017-11-23T11:35:22.076Z,5.87
2017-11-23T11:37:49.836Z,5.65
2017-11-23T11:40:17.585Z,5.50
2017-11-23T11:42:45.390Z,5.03
2017-11-23T11:45:13.132Z,4.85
2017-11-23T11:47:41.638Z,5.60
2017-11-23T11:50:09.440Z,4.75
2017-11-23T11:52:37.190Z,4.40
2017-11-23T11:55:04.946Z,4.28
2017-11-23T11:57:33.522Z,4.68
2017-11-23T12:00:01.280Z,4.47
2017-11-23T12:02:29.026Z,5.32
2017-11-23T12:04:56.834Z,4.72
2017-11-23T12:07:24.592Z,5.85
2017-11-23T12:09:52.352Z,5.07
2017-11-23T12:12:20.178Z,5.40
2017-11-23T12:14:59.818Z,6.03
2017-11-23T12:17:40.374Z,5.65
2017-11-23T12:20:08.926Z,6.03
2017-11-23T12:22:44.556Z,5.90
2017-11-23T12:25:12.320Z,5.55
2017-11-23T12:41:11.664Z,5.85
2017-11-23T12:43:39.411Z,6.75
2017-11-23T12:46:07.159Z,6.00
2017-11-23T12:48:34.984Z,7.03
2017-11-23T12:51:02.739Z,6.97
2017-11-23T12:53:30.511Z,7.72
2017-11-23T12:55:58.313Z,6.85
2017-11-23T12:58:26.053Z,6.20
2017-11-23T13:00:54.572Z,7.12
2017-11-23T13:03:22.409Z,7.40
2017-11-23T13:05:50.163Z,7.57
2017-11-23T13:08:17.908Z,6.60
2017-11-23T13:10:46.477Z,7.75
2017-11-23T13:13:14.996Z,8.35
2017-11-23T13:15:42.759Z,7.80
2017-11-23T13:18:10.564Z,8.68
2017-11-23T13:20:38.316Z,7.80
2017-11-23T13:23:06.078Z,7.55
2017-11-23T13:25:33.884Z,7.15
2017-11-23T13:28:02.399Z,8.25
2017-11-23T13:30:30.150Z,9.50
2017-11-23T13:32:57.963Z,8.80
2017-11-23T13:35:25.762Z,9.38
2017-11-23T13:37:53.516Z,9.05
2017-11-23T13:40:22.267Z,8.90
2017-11-23T13:42:50.898Z,8.57
2017-11-23T13:45:18.858Z,8.57
2017-11-23T13:47:47.776Z,9.30
2017-11-23T13:50:15.727Z,7.75
2017-11-23T13:52:43.592Z,8.23
2017-11-23T13:55:11.647Z,7.50
2017-11-23T13:57:39.444Z,9.38
2017-11-23T14:00:07.194Z,6.95
2017-11-23T14:02:34.999Z,8.00
2017-11-23T14:05:02.748Z,8.10
2017-11-23T14:07:30.515Z,8.45
2017-11-23T14:09:58.345Z,8.68
2017-11-23T14:12:26.125Z,11.60
2017-11-23T14:14:53.872Z,10.73
2017-11-23T14:17:21.678Z,11.02
2017-11-23T14:19:49.438Z,11.55
2017-11-23T14:22:17.188Z,11.20
2017-11-23T14:24:45.020Z,11.25
2017-11-23T14:27:12.774Z,11.02
2017-11-23T14:29:40.543Z,10.45
2017-11-23T14:32:08.352Z,10.13
2017-11-23T14:34:36.120Z,10.35
2017-11-23T14:37:04.669Z,10.55
2017-11-23T14:39:32.480Z,11.45
2017-11-23T14:42:00.232Z,11.70
2017-11-23T14:44:28.745Z,14.48
2017-11-23T14:46:56.575Z,14.77
2017-11-23T14:49:25.090Z,13.25
2017-11-23T14:51:52.858Z,12.02
2017-11-23T14:54:20.669Z,12.90
2017-11-23T14:56:49.204Z,10.70
2017-11-23T14:59:16.960Z,14.98
2017-11-23T15:01:44.801Z,12.00
2017-11-23T15:04:14.201Z,13.60
2017-11-23T15:06:42.109Z,13.77
2017-11-23T15:09:09.970Z,14.25
2017-11-23T15:11:38.478Z,13.05
2017-11-23T15:14:07.010Z,13.57
2017-11-23T15:16:34.844Z,12.45
2017-11-23T15:19:02.610Z,13.27
2017-11-23T15:21:30.399Z,12.27
2017-11-23T15:23:58.238Z,12.50
2017-11-23T15:26:26.000Z,12.98
2017-11-23T15:28:53.764Z,13.60
2017-11-23T15:31:21.610Z,13.23
2017-11-23T15:33:49.892Z,14.85
2017-11-23T15:36:17.667Z,14.15
2017-11-23T15:38:45.568Z,14.38
2017-11-23T15:41:13.340Z,16.00
2017-11-23T15:43:41.089Z,14.55
2017-11-23T15:46:08.944Z,15.50
2017-11-23T15:48:36.699Z,14.73
2017-11-23T15:51:04.919Z,17.35
2017-11-23T15:53:33.581Z,15.13
2017-11-23T15:56:01.465Z,15.98
2017-11-23T15:58:30.065Z,17.83
2017-11-23T16:00:57.956Z,17.77
2017-11-23T16:03:26.826Z,17.95
2017-11-23T16:05:54.624Z,15.48
2017-11-23T16:08:23.236Z,15.55
2017-11-23T16:10:51.044Z,15.50
2017-11-23T16:13:18.844Z,14.57
2017-11-23T16:15:47.704Z,15.02
2017-11-23T16:18:15.490Z,15.30
2017-11-23T16:20:43.532Z,14.63
2017-11-23T16:23:11.361Z,14.60
2017-11-23T16:25:40.043Z,16.20
2017-11-23T16:28:08.628Z,16.75
2017-11-23T16:30:36.483Z,18.45
2017-11-23T16:33:05.027Z,17.15
2017-11-23T16:35:32.892Z,16.35
2017-11-23T16:38:00.719Z,17.67
2017-11-23T16:40:33.897Z,18.35
2017-11-23T16:43:03.722Z,15.75
2017-11-23T16:45:37.168Z,16.95
2017-11-23T16:48:11.368Z,16.25
2017-11-23T16:50:53.699Z,18.98
2017-11-23T16:53:27.969Z,16.45
2017-11-23T16:56:01.488Z,16.37
2017-11-23T16:58:34.852Z,17.02
2017-11-23T17:01:08.971Z,17.10
2017-11-23T17:03:42.567Z,19.15
2017-11-23T17:06:15.940Z,17.90
2017-11-23T17:22:09.801Z,18.35
2017-11-23T17:24:37.560Z,21.98
2017-11-23T17:27:05.409Z,20.08
2017-11-23T17:29:33.827Z,21.40
2017-11-23T17:32:01.636Z,21.17
2017-11-23T17:34:29.497Z,21.80
2017-11-23T17:36:57.327Z,19.60
2017-11-23T17:39:26.107Z,18.15
2017-11-23T17:41:53.961Z,16.58
2017-11-23T17:44:22.895Z,16.00
2017-11-23T17:46:50.819Z,16.52
2017-11-23T17:49:18.654Z,16.83
2017-11-23T17:51:46.462Z,16.30
2017-11-23T17:54:15.056Z,17.15
2017-11-23T17:56:42.803Z,16.75
2017-11-23T17:59:11.416Z,18.65
2017-11-23T18:01:39.179Z,16.45
2017-11-23T18:04:06.928Z,16.73
2017-11-23T18:06:34.742Z,17.60
2017-11-23T18:09:02.496Z,16.70
2017-11-23T18:11:30.248Z,16.42
2017-11-23T18:13:58.056Z,16.85
2017-11-23T18:16:26.610Z,15.45
2017-11-23T18:18:58.924Z,17.20
2017-11-23T18:21:26.687Z,14.63
2017-11-23T18:23:54.438Z,19.67
2017-11-23T18:26:22.250Z,17.92
2017-11-23T18:28:50.012Z,18.33
2017-11-23T18:31:17.767Z,18.00
2017-11-23T18:33:45.566Z,20.40
2017-11-23T18:36:13.319Z,19.60
2017-11-23T18:38:41.073Z,20.75
2017-11-23T18:41:09.046Z,18.00
2017-11-23T18:43:36.807Z,16.75
2017-11-23T18:46:04.561Z,18.33
2017-11-23T18:48:33.134Z,18.87
2017-11-23T18:51:00.887Z,18.10
2017-11-23T18:53:28.642Z,19.33
2017-11-23T18:55:56.453Z,20.77
2017-11-23T18:58:24.965Z,19.48
2017-11-23T19:00:52.714Z,21.33
2017-11-23T19:03:21.291Z,21.37
2017-11-23T19:05:49.806Z,21.58
2017-11-23T19:08:17.559Z,23.05
2017-11-23T19:10:45.407Z,24.70
2017-11-23T19:13:13.180Z,21.73
2017-11-23T19:15:40.932Z,22.80
2017-11-23T19:18:08.739Z,22.92
2017-11-23T19:20:36.488Z,23.77
2017-11-23T19:23:04.260Z,24.00
2017-11-23T19:25:32.076Z,20.88
2017-11-23T19:27:59.832Z,21.98
2017-11-23T19:30:27.592Z,22.17
2017-11-23T19:32:55.427Z,20.98
2017-11-23T19:35:23.175Z,21.83
2017-11-23T19:37:50.937Z,21.55
2017-11-23T19:40:18.746Z,20.80
2017-11-23T19:42:46.519Z,21.83
2017-11-23T19:45:14.307Z,21.62
2017-11-23T19:47:42.116Z,21.70
2017-11-23T19:50:10.644Z,22.92
2017-11-23T19:52:38.431Z,21.92
2017-11-23T19:55:06.245Z,22.13
2017-11-23T19:57:34.007Z,23.12
2017-11-23T20:00:01.761Z,23.58
2017-11-23T20:02:29.803Z,22.40
2017-11-23T20:04:57.551Z,24.63
2017-11-23T20:07:25.335Z,22.40
2017-11-23T20:09:53.902Z,24.15
2017-11-23T20:12:21.664Z,22.55
2017-11-23T20:14:49.416Z,22.92
2017-11-23T20:17:17.235Z,22.33
2017-11-23T20:19:45.019Z,26.33
2017-11-23T20:22:12.802Z,23.12
2017-11-23T20:24:40.714Z,23.95
2017-11-23T20:27:08.464Z,24.77
2017-11-23T20:29:36.983Z,23.85
2017-11-23T20:32:04.819Z,23.25
2017-11-23T20:34:32.580Z,25.50
2017-11-23T20:37:00.347Z,22.52
2017-11-23T20:39:28.155Z,24.87
2017-11-23T20:41:56.025Z,24.52
2017-11-23T20:44:23.832Z,22.77
2017-11-23T20:46:51.710Z,24.67
2017-11-23T20:49:19.515Z,25.83
2017-11-23T20:51:47.349Z,23.80
2017-11-23T20:54:19.039Z,24.80
2017-11-23T20:56:47.612Z,26.40
2017-11-23T20:59:16.094Z,23.70
2017-11-23T21:01:44.240Z,21.83
2017-11-23T21:04:12.266Z,22.05
2017-11-23T21:06:40.058Z,23.38
2017-11-23T21:09:07.881Z,26.17
2017-11-23T21:11:35.636Z,26.55
2017-11-23T21:14:04.150Z,29.17
2017-11-23T21:16:31.952Z,28.05
2017-11-23T21:18:59.707Z,30.15
2017-11-23T21:21:27.456Z,29.67
2017-11-23T21:23:55.510Z,29.00
2017-11-23T21:26:25.099Z,29.87
2017-11-23T21:28:53.991Z,30.85
2017-11-23T21:31:22.129Z,41.28
2017-11-23T21:33:50.661Z,33.85
2017-11-23T21:36:18.600Z,27.75
2017-11-23T21:38:46.657Z,30.52
2017-11-23T21:41:14.619Z,23.42
2017-11-23T21:43:42.467Z,20.95
2017-11-23T21:46:11.043Z,21.87
2017-11-23T21:48:39.632Z,22.80
2017-11-23T21:51:08.212Z,20.37
2017-11-23T21:53:36.793Z,19.90
2017-11-23T21:56:05.304Z,19.25
2017-11-23T21:58:33.084Z,18.40
2017-11-23T22:01:00.916Z,20.98
2017-11-23T22:03:29.431Z,18.17
2017-11-23T22:05:57.215Z,17.25
2017-11-23T22:08:25.101Z,17.70
2017-11-23T22:10:52.915Z,18.67
2017-11-23T22:13:20.715Z,16.83
2017-11-23T22:15:48.705Z,18.00
2017-11-23T22:18:17.358Z,17.70
2017-11-23T22:20:45.108Z,20.75
2017-11-23T22:23:13.000Z,19.02
2017-11-23T22:25:41.881Z,19.90
2017-11-23T22:28:10.468Z,21.17
2017-11-23T22:30:38.460Z,20.35
2017-11-23T22:33:06.458Z,21.08
2017-11-23T22:35:34.426Z,19.60
2017-11-23T22:38:02.387Z,20.10
2017-11-23T22:40:32.294Z,20.70
2017-11-23T22:43:00.090Z,21.42
2017-11-23T22:45:27.898Z,19.30
2017-11-23T22:47:55.648Z,23.52
2017-11-23T22:50:24.158Z,19.90
2017-11-23T22:52:51.962Z,19.45
2017-11-23T22:55:19.739Z,19.75
2017-11-23T22:57:48.262Z,19.90
2017-11-23T23:00:16.069Z,20.50
2017-11-23T23:02:43.838Z,15.85
2017-11-23T23:05:12.360Z,17.33
2017-11-23T23:07:40.164Z,17.95
2017-11-23T23:10:07.906Z,18.23
2017-11-23T23:12:35.646Z,17.30
2017-11-23T23:15:03.453Z,16.45
2017-11-23T23:17:31.195Z,18.17
2017-11-23T23:19:58.945Z,18.75
2017-11-23T23:22:26.746Z,18.48
2017-11-23T23:24:54.491Z,18.60
2017-11-23T23:27:22.235Z,17.45
2017-11-23T23:29:50.214Z,20.33
2017-11-23T23:32:17.956Z,23.70
2017-11-23T23:34:45.714Z,26.23
2017-11-23T23:37:13.612Z,24.40
2017-11-23T23:39:41.364Z,24.23
2017-11-23T23:42:09.114Z,26.05
2017-11-23T23:44:36.935Z,27.02
2017-11-23T23:47:05.446Z,27.80
2017-11-23T23:49:33.187Z,25.40
2017-11-23T23:52:01.002Z,27.90
2017-11-23T23:54:28.749Z,28.23
2017-11-23T23:56:56.500Z,26.02
2017-11-23T23:59:24.316Z,27.08
